Time;durP1;ratioP1;P1;durP2;ratioP2;P2;SDS_P1;SDS_P2;PMS_P1;PMS_P2;Temp;Humidity;BMP_temperature;BMP_pressure;BME280_temperature;BME280_humidity;BME280_pressure;Samples;Min_cycle;Max_cycle;Signal;HPM_P1;HPM_P2
2022/04/13 00:02:01;;;;;;;3.50;2.65;;;;;;;10.86;100.00;95559.88;5032369;28;24848;-72
2022/04/13 00:04:27;;;;;;;3.67;2.25;;;;;;;10.88;100.00;95558.88;5032710;28;24436;-71
2022/04/13 00:06:54;;;;;;;6.38;2.42;;;;;;;10.88;100.00;95558.03;5032533;28;24980;-71
2022/04/13 00:09:22;;;;;;;3.10;2.50;;;;;;;10.87;100.00;95565.00;5032210;28;24451;-72
2022/04/13 00:11:48;;;;;;;3.35;2.25;;;;;;;10.93;100.00;95557.72;5032234;28;24435;-72
2022/04/13 00:14:14;;;;;;;3.85;2.75;;;;;;;10.95;100.00;95553.28;5032357;28;24439;-72
2022/04/13 00:16:42;;;;;;;3.47;2.70;;;;;;;10.81;100.00;95554.19;5032458;28;24432;-72
2022/04/13 00:19:08;;;;;;;5.00;2.40;;;;;;;10.65;100.00;95557.00;5032229;28;24543;-71
2022/04/13 00:21:35;;;;;;;3.33;2.30;;;;;;;10.61;100.00;95566.72;5032142;28;24455;-72
2022/04/13 00:24:01;;;;;;;4.45;2.78;;;;;;;10.58;100.00;95551.38;5032317;28;24485;-72
2022/04/13 00:26:29;;;;;;;3.97;2.30;;;;;;;10.75;100.00;95552.84;5032306;28;24443;-72
2022/04/13 00:28:55;;;;;;;2.88;2.13;;;;;;;10.68;100.00;95561.13;5032222;28;24493;-72
2022/04/13 00:31:22;;;;;;;3.67;2.60;;;;;;;10.66;100.00;95569.00;5031804;28;24459;-72
2022/04/13 00:33:48;;;;;;;3.78;2.70;;;;;;;10.60;100.00;95559.88;5032091;28;24443;-71
2022/04/13 00:36:15;;;;;;;3.33;2.55;;;;;;;10.96;100.00;95567.88;5032109;28;24849;-71
2022/04/13 00:38:41;;;;;;;3.60;2.63;;;;;;;10.89;100.00;95560.50;5031892;28;24440;-72
2022/04/13 00:41:08;;;;;;;3.17;2.35;;;;;;;10.41;100.00;95560.25;5031417;28;24427;-71
2022/04/13 00:43:36;;;;;;;5.30;2.90;;;;;;;10.38;100.00;95559.63;5030796;28;25004;-71
2022/04/13 00:46:02;;;;;;;4.40;2.60;;;;;;;10.45;100.00;95560.06;5031786;28;24458;-72
2022/04/13 00:48:31;;;;;;;5.53;3.10;;;;;;;10.36;100.00;95558.91;5031636;28;24545;-71
2022/04/13 00:50:57;;;;;;;6.53;3.70;;;;;;;10.45;100.00;95558.28;5031315;28;24451;-71
2022/04/13 00:53:25;;;;;;;5.03;3.27;;;;;;;10.45;100.00;95560.88;5031820;28;24439;-71
2022/04/13 00:55:55;;;;;;;4.38;3.20;;;;;;;10.16;100.00;95570.53;5031845;28;24440;-71
2022/04/13 00:58:23;;;;;;;4.13;3.17;;;;;;;10.16;100.00;95567.94;5031507;28;24527;-71
2022/04/13 01:00:52;;;;;;;4.25;3.15;;;;;;;10.16;100.00;95563.59;5031097;28;24524;-71
2022/04/13 01:03:20;;;;;;;4.95;2.75;;;;;;;10.16;100.00;95573.94;5016300;28;24431;-71
2022/04/13 01:05:48;;;;;;;3.30;2.40;;;;;;;10.19;100.00;95570.31;5031567;28;24438;-71
2022/04/13 01:08:17;;;;;;;4.38;2.50;;;;;;;10.20;100.00;95566.81;5031483;28;24436;-71
2022/04/13 01:10:45;;;;;;;3.38;2.40;;;;;;;10.22;100.00;95570.13;5030948;28;24523;-71
2022/04/13 01:13:11;;;;;;;4.25;2.60;;;;;;;10.12;100.00;95566.44;5031100;28;24464;-71
2022/04/13 01:15:38;;;;;;;3.92;2.50;;;;;;;9.96;100.00;95574.38;5020671;28;24432;-71
2022/04/13 01:18:06;;;;;;;4.30;2.70;;;;;;;10.08;100.00;95577.94;5031599;28;24411;-71
2022/04/13 01:20:34;;;;;;;5.40;2.67;;;;;;;10.08;100.00;95573.56;5031134;28;24439;-72
2022/04/13 01:23:02;;;;;;;4.35;2.50;;;;;;;10.28;100.00;95574.13;5031173;28;24482;-71
2022/04/13 01:25:29;;;;;;;3.65;2.50;;;;;;;10.21;100.00;95575.41;5030809;28;24435;-71
2022/04/13 01:27:55;;;;;;;3.77;2.70;;;;;;;10.04;100.00;95572.13;5030781;28;24462;-71
2022/04/13 01:30:23;;;;;;;5.50;2.47;;;;;;;10.01;100.00;95572.34;5031113;28;25077;-71
2022/04/13 01:32:49;;;;;;;4.22;2.58;;;;;;;10.00;100.00;95569.84;5030547;28;25025;-72
2022/04/13 01:35:16;;;;;;;8.75;3.13;;;;;;;10.25;100.00;95575.13;5030840;28;24485;-72
2022/04/13 01:37:42;;;;;;;6.55;3.53;;;;;;;10.36;100.00;95574.44;5030757;28;24443;-71
2022/04/13 01:40:11;;;;;;;4.78;2.92;;;;;;;10.17;100.00;95575.59;5030751;28;24439;-71
2022/04/13 01:42:38;;;;;;;4.82;3.22;;;;;;;9.86;100.00;95579.31;5030081;28;24440;-70
2022/04/13 01:45:05;;;;;;;6.05;3.83;;;;;;;9.70;100.00;95579.41;5030852;28;24482;-71
2022/04/13 01:47:31;;;;;;;6.22;3.70;;;;;;;9.60;100.00;95580.09;5030553;28;24521;-71
2022/04/13 01:49:59;;;;;;;7.25;3.50;;;;;;;9.60;100.00;95593.00;5030657;28;24462;-72
2022/04/13 01:52:26;;;;;;;7.40;3.80;;;;;;;9.53;100.00;95583.97;5030603;28;24482;-72
2022/04/13 01:54:52;;;;;;;5.55;3.38;;;;;;;9.54;100.00;95586.47;5030105;28;24447;-71
2022/04/13 01:57:22;;;;;;;6.68;3.83;;;;;;;9.60;100.00;95588.69;5030357;28;24851;-71
2022/04/13 01:59:48;;;;;;;5.20;3.43;;;;;;;9.50;100.00;95587.59;5030460;28;20904;-71
2022/04/13 02:02:16;;;;;;;6.75;3.38;;;;;;;9.42;100.00;95592.41;5030366;28;24444;-71
2022/04/13 02:04:43;;;;;;;5.97;3.50;;;;;;;9.38;100.00;95594.34;5030504;28;24443;-72
2022/04/13 02:07:09;;;;;;;4.50;2.97;;;;;;;9.35;100.00;95594.53;5030037;28;24989;-72
2022/04/13 02:09:36;;;;;;;4.13;2.70;;;;;;;9.31;100.00;95598.22;5030439;28;24440;-71
2022/04/13 02:12:02;;;;;;;12.38;3.20;;;;;;;9.29;100.00;95600.06;5029688;28;24454;-72
2022/04/13 02:14:30;;;;;;;3.95;2.70;;;;;;;9.35;100.00;95593.72;5030381;28;24443;-72
2022/04/13 02:16:56;;;;;;;3.88;2.47;;;;;;;9.33;100.00;95598.94;5030264;28;24439;-72
2022/04/13 02:19:23;;;;;;;2.90;2.38;;;;;;;9.37;100.00;95600.41;5030183;28;24444;-72
2022/04/13 02:21:50;;;;;;;4.43;2.42;;;;;;;9.55;100.00;95601.06;5029928;28;20768;-72
2022/04/13 02:24:16;;;;;;;4.95;3.17;;;;;;;9.68;100.00;95603.75;5030538;28;24432;-71
2022/04/13 02:26:42;;;;;;;4.95;3.17;;;;;;;9.55;100.00;95605.41;5030179;28;24436;-71
2022/04/13 02:29:09;;;;;;;5.00;2.78;;;;;;;9.24;100.00;95603.84;5030228;28;24502;-71
2022/04/13 02:31:37;;;;;;;3.72;2.78;;;;;;;9.12;100.00;95597.66;5029813;28;25031;-71
2022/04/13 02:34:04;;;;;;;5.40;2.90;;;;;;;9.04;100.00;95598.09;5030234;28;24837;-72
2022/04/13 02:36:31;;;;;;;4.25;2.40;;;;;;;9.11;100.00;95596.81;5029834;28;24874;-71
2022/04/13 02:38:57;;;;;;;4.32;2.53;;;;;;;9.16;100.00;95597.41;5030261;28;24439;-72
2022/04/13 02:41:23;;;;;;;4.60;2.70;;;;;;;9.25;100.00;95590.00;5029747;28;24486;-71
2022/04/13 02:43:50;;;;;;;4.85;2.60;;;;;;;9.53;100.00;95597.75;5030235;28;24500;-71
2022/04/13 02:46:16;;;;;;;3.65;2.72;;;;;;;9.28;100.00;95597.59;5030005;28;24494;-71
2022/04/13 02:48:45;;;;;;;5.80;2.77;;;;;;;9.07;100.00;95602.28;5060693;22;24513;-76
2022/04/13 02:51:11;;;;;;;5.07;2.75;;;;;;;8.84;100.00;95593.31;5050065;28;20766;-76
2022/04/13 02:53:38;;;;;;;3.90;2.67;;;;;;;8.78;100.00;95598.81;5050426;28;20764;-76
2022/04/13 02:56:04;;;;;;;4.93;2.83;;;;;;;8.81;100.00;95594.31;5050240;28;20778;-76
2022/04/13 02:58:31;;;;;;;5.60;3.30;;;;;;;8.79;100.00;95592.72;5050395;28;20783;-77
2022/04/13 03:00:57;;;;;;;3.90;3.00;;;;;;;8.86;100.00;95591.44;5049968;28;21320;-77
2022/04/13 03:03:24;;;;;;;5.57;4.20;;;;;;;8.86;100.00;95600.06;5050520;28;20773;-77
2022/04/13 03:05:52;;;;;;;13.23;4.32;;;;;;;8.75;100.00;95593.81;5051283;28;24894;-76
2022/04/13 03:08:18;;;;;;;6.07;3.88;;;;;;;8.73;100.00;95596.50;5054253;28;20817;-76
2022/04/13 03:10:45;;;;;;;7.80;3.80;;;;;;;8.80;100.00;95589.25;5054051;28;20836;-75
2022/04/13 03:13:11;;;;;;;4.88;3.45;;;;;;;8.80;100.00;95592.66;5053980;28;24922;-76
2022/04/13 03:15:37;;;;;;;6.57;2.80;;;;;;;8.82;100.00;95598.53;5053913;28;24430;-76
2022/04/13 03:18:05;;;;;;;5.55;2.88;;;;;;;8.84;100.00;95594.13;5054020;28;24454;-76
2022/04/13 03:20:31;;;;;;;4.47;2.83;;;;;;;8.85;100.00;95595.78;5053921;28;20755;-76
2022/04/13 03:22:59;;;;;;;4.18;2.97;;;;;;;8.86;100.00;95600.06;5053772;28;24447;-76
2022/04/13 03:25:26;;;;;;;3.88;3.08;;;;;;;8.82;100.00;95603.69;5053854;28;24431;-76
2022/04/13 03:27:52;;;;;;;6.63;3.30;;;;;;;8.62;100.00;95591.13;5053820;28;24489;-76
2022/04/13 03:30:19;;;;;;;3.78;2.78;;;;;;;8.65;100.00;95593.53;5053688;28;24434;-76
2022/04/13 03:32:45;;;;;;;5.70;3.17;;;;;;;8.75;100.00;95597.25;5053693;28;24840;-75
2022/04/13 03:35:12;;;;;;;4.43;3.10;;;;;;;8.72;100.00;95595.69;5053485;28;24824;-76
2022/04/13 03:37:39;;;;;;;3.97;2.83;;;;;;;8.64;100.00;95589.28;5053573;28;20767;-77
2022/04/13 03:40:09;;;;;;;4.43;2.78;;;;;;;8.55;100.00;95595.81;5033503;28;24435;-76
2022/04/13 03:42:35;;;;;;;4.38;2.85;;;;;;;8.41;100.00;95598.34;5033616;28;20706;-76
2022/04/13 03:45:03;;;;;;;5.35;2.90;;;;;;;8.33;100.00;95596.19;5043448;28;25037;-77
2022/04/13 03:47:30;;;;;;;3.30;2.58;;;;;;;8.26;100.00;95605.19;5053247;28;20847;-76
2022/04/13 03:49:56;;;;;;;3.95;2.38;;;;;;;8.17;100.00;95598.78;5052999;28;24428;-75
2022/04/13 03:52:23;;;;;;;3.33;2.78;;;;;;;8.20;100.00;95600.38;5053350;28;24458;-75
2022/04/13 03:54:49;;;;;;;5.95;3.15;;;;;;;8.37;100.00;95602.00;5053090;28;24446;-76
2022/04/13 03:57:17;;;;;;;4.00;2.50;;;;;;;8.53;100.00;95601.97;5052939;28;24435;-76
2022/04/13 03:59:43;;;;;;;3.33;2.50;;;;;;;8.39;100.00;95601.03;5052894;28;21145;-76
2022/04/13 04:02:10;;;;;;;4.32;2.78;;;;;;;8.26;100.00;95602.59;5052439;28;25041;-76
2022/04/13 04:04:36;;;;;;;3.92;2.65;;;;;;;8.30;100.00;95609.25;5053131;28;24466;-75
2022/04/13 04:07:04;;;;;;;4.65;2.45;;;;;;;8.36;100.00;95606.31;5053150;28;24419;-76
2022/04/13 04:09:30;;;;;;;4.78;2.83;;;;;;;8.54;100.00;95606.25;5052837;28;20795;-76
2022/04/13 04:11:57;;;;;;;4.88;2.63;;;;;;;8.66;100.00;95603.78;5045360;28;24984;-76
2022/04/13 04:14:25;;;;;;;4.03;2.60;;;;;;;8.42;100.00;95602.63;5052412;28;24972;-76
2022/04/13 04:16:51;;;;;;;3.45;2.33;;;;;;;8.26;100.00;95607.75;5052627;28;20846;-76
2022/04/13 04:19:17;;;;;;;6.70;2.97;;;;;;;8.22;100.00;95604.53;5052580;28;24443;-76
2022/04/13 04:21:44;;;;;;;4.82;2.65;;;;;;;8.17;100.00;95609.13;5052414;28;24419;-77
2022/04/13 04:24:10;;;;;;;8.15;2.80;;;;;;;8.18;100.00;95602.19;5052329;28;24432;-76
2022/04/13 04:26:37;;;;;;;4.75;2.55;;;;;;;8.17;100.00;95600.56;5052329;28;24435;-76
2022/04/13 04:29:03;;;;;;;3.67;2.65;;;;;;;8.17;100.00;95605.72;5052198;28;25037;-76
2022/04/13 04:34:15;;;;;;;2.13;1.92;;;;;;;8.20;100.00;95613.28;5052432;28;20843;-76
2022/04/13 04:36:41;;;;;;;2.25;2.05;;;;;;;8.18;100.00;95607.38;5046958;28;24431;-76
2022/04/13 04:39:08;;;;;;;3.63;2.60;;;;;;;8.11;100.00;95616.34;5036103;28;20779;-76
2022/04/13 04:41:35;;;;;;;4.05;2.65;;;;;;;8.07;100.00;95623.44;5048060;28;24435;-76
2022/04/13 04:44:01;;;;;;;5.95;2.92;;;;;;;8.20;100.00;95615.88;5052370;28;24447;-77
2022/04/13 04:46:28;;;;;;;3.85;2.97;;;;;;;8.08;100.00;95619.09;5052224;28;20897;-76
2022/04/13 04:48:56;;;;;;;6.45;3.10;;;;;;;7.96;100.00;95623.19;5051975;28;20783;-75
2022/04/13 04:51:22;;;;;;;5.68;3.28;;;;;;;7.84;100.00;95614.38;5051517;28;20824;-78
2022/04/13 04:53:49;;;;;;;5.70;2.85;;;;;;;7.93;100.00;95618.19;5052159;28;24450;-77
2022/04/13 04:56:16;;;;;;;7.57;3.73;;;;;;;7.99;100.00;95626.44;5052990;28;24431;-79
2022/04/13 04:58:42;;;;;;;4.53;3.17;;;;;;;8.02;100.00;95624.63;5041748;28;24443;-78
2022/04/13 05:01:09;;;;;;;3.80;2.90;;;;;;;8.06;100.00;95645.00;5045085;28;20821;-79
2022/04/13 05:03:36;;;;;;;8.90;3.63;;;;;;;8.10;100.00;95632.75;5040179;28;24435;-79
2022/04/13 05:06:04;;;;;;;4.28;3.25;;;;;;;8.07;100.00;95633.75;5054231;28;21183;-79
2022/04/13 05:08:30;;;;;;;4.85;3.25;;;;;;;8.08;100.00;95632.00;5054797;28;24422;-79
2022/04/13 05:10:57;;;;;;;5.90;3.30;;;;;;;7.94;100.00;95636.19;5054471;28;24445;-79
2022/04/13 05:13:23;;;;;;;6.07;2.65;;;;;;;7.89;100.00;95637.34;5054036;28;24455;-79
2022/04/13 05:15:49;;;;;;;4.07;2.65;;;;;;;8.01;100.00;95639.25;5054579;28;24784;-79
2022/04/13 05:18:16;;;;;;;4.00;2.95;;;;;;;8.07;100.00;95640.66;5054683;28;24449;-80
2022/04/13 05:20:42;;;;;;;4.53;3.20;;;;;;;8.12;100.00;95642.09;5053890;28;24464;-79
2022/04/13 05:23:10;;;;;;;4.65;2.88;;;;;;;8.16;100.00;95648.75;5054071;28;20767;-79
2022/04/13 05:25:37;;;;;;;10.07;4.13;;;;;;;8.31;100.00;95651.38;5053935;28;20811;-79
2022/04/13 05:28:03;;;;;;;7.28;3.80;;;;;;;8.21;100.00;95651.88;5053839;28;24496;-80
2022/04/13 05:30:30;;;;;;;10.02;3.47;;;;;;;8.22;100.00;95652.72;5054925;28;24440;-78
2022/04/13 05:32:58;;;;;;;4.50;2.93;;;;;;;8.31;100.00;95667.69;5052275;28;24438;-79
2022/04/13 05:35:25;;;;;;;4.22;2.90;;;;;;;8.39;100.00;95660.38;5035671;28;20760;-79
2022/04/13 05:37:52;;;;;;;4.57;2.92;;;;;;;8.48;100.00;95654.69;5047655;28;20784;-79
2022/04/13 05:40:20;;;;;;;8.15;2.55;;;;;;;8.52;100.00;95660.50;5055710;28;24434;-79
2022/04/13 05:42:47;;;;;;;5.05;2.78;;;;;;;8.58;100.00;95660.19;5055144;28;20911;-79
2022/04/13 05:45:14;;;;;;;4.45;2.67;;;;;;;8.69;100.00;95662.16;5054693;28;24498;-79
2022/04/13 05:47:42;;;;;;;4.57;2.45;;;;;;;8.71;100.00;95670.63;5053153;28;20813;-79
2022/04/13 05:50:09;;;;;;;3.75;2.30;;;;;;;8.79;100.00;95671.06;5055406;28;20825;-80
2022/04/13 05:52:36;;;;;;;5.15;2.75;;;;;;;8.71;100.00;95676.66;5054677;28;21145;-79
2022/04/13 05:55:03;;;;;;;4.93;2.70;;;;;;;8.58;100.00;95678.25;5054215;28;24446;-79
2022/04/13 05:57:31;;;;;;;2.83;2.38;;;;;;;8.68;100.00;95681.16;5055641;28;20778;-79
2022/04/13 05:59:58;;;;;;;4.18;2.38;;;;;;;8.84;100.00;95675.94;5055845;28;20802;-80
2022/04/13 06:02:24;;;;;;;4.50;2.75;;;;;;;8.99;100.00;95684.56;5040656;28;20784;-79
2022/04/13 06:04:51;;;;;;;7.50;3.25;;;;;;;9.06;100.00;95684.13;5033118;28;24415;-77
2022/04/13 06:07:18;;;;;;;3.70;2.60;;;;;;;9.19;100.00;95684.22;5031258;28;20753;-78
2022/04/13 06:09:44;;;;;;;2.60;2.40;;;;;;;9.25;100.00;95680.47;5048201;28;24454;-79
2022/04/13 06:12:11;;;;;;;5.57;2.50;;;;;;;9.25;100.00;95680.47;5048784;28;21380;-78
2022/04/13 06:14:39;;;;;;;3.53;2.65;;;;;;;9.36;100.00;95691.81;5052991;28;24434;-79
2022/04/13 06:17:05;;;;;;;5.45;2.97;;;;;;;9.69;100.00;95685.56;5051551;28;20766;-78
2022/04/13 06:19:32;;;;;;;4.88;2.70;;;;;;;9.99;100.00;95692.38;5050136;28;24443;-78
2022/04/13 06:21:58;;;;;;;5.50;2.80;;;;;;;10.10;100.00;95687.34;5048440;28;24458;-78
2022/04/13 06:24:25;;;;;;;3.57;2.63;;;;;;;10.23;100.00;95685.66;5051156;28;24534;-78
2022/04/13 06:26:51;;;;;;;5.17;2.80;;;;;;;10.17;100.00;95688.63;5051947;28;24508;-79
2022/04/13 06:29:18;;;;;;;6.38;2.95;;;;;;;10.11;100.00;95697.59;5051088;28;20785;-78
2022/04/13 06:31:45;;;;;;;11.80;3.47;;;;;;;10.36;100.00;95696.94;5050531;28;20783;-78
2022/04/13 06:34:12;;;;;;;4.03;3.33;;;;;;;10.36;100.00;95693.53;5051502;28;24434;-78
2022/04/13 06:36:38;;;;;;;8.50;3.70;;;;;;;10.33;100.00;95689.34;5050694;28;24423;-76
2022/04/13 06:39:05;;;;;;;5.78;3.25;;;;;;;10.31;100.00;95693.81;5050232;28;20760;-77
2022/04/13 06:41:31;;;;;;;3.60;2.92;;;;;;;10.34;100.00;95698.78;5035731;28;24443;-76
2022/04/13 06:43:59;;;;;;;6.35;3.80;;;;;;;10.49;100.00;95694.38;5035906;28;20777;-77
2022/04/13 06:46:25;;;;;;;7.05;3.90;;;;;;;10.68;100.00;95690.63;5035080;28;24516;-76
2022/04/13 06:48:53;;;;;;;5.97;3.80;;;;;;;10.74;100.00;95705.78;5034411;28;24463;-77
2022/04/13 06:51:20;;;;;;;4.38;3.33;;;;;;;10.81;100.00;95704.47;5036859;28;24432;-76
2022/04/13 06:53:46;;;;;;;6.65;3.60;;;;;;;10.83;100.00;95700.84;5044883;28;24430;-77
2022/04/13 06:56:13;;;;;;;6.18;2.90;;;;;;;10.81;100.00;95705.28;5052229;28;24438;-77
2022/04/13 06:58:41;;;;;;;7.80;3.20;;;;;;;10.82;100.00;95704.34;5043759;28;24653;-77
2022/04/13 07:01:09;;;;;;;5.30;2.83;;;;;;;11.07;100.00;95708.75;5043418;28;24469;-77
2022/04/13 07:03:35;;;;;;;4.28;2.88;;;;;;;11.30;100.00;95709.84;5044099;28;24455;-77
2022/04/13 07:06:03;;;;;;;6.18;3.35;;;;;;;11.57;100.00;95706.34;5047059;28;24908;-79
2022/04/13 07:08:30;;;;;;;4.70;3.05;;;;;;;11.95;100.00;95708.13;5044211;28;24448;-79
2022/04/13 07:10:56;;;;;;;6.32;2.92;;;;;;;12.02;100.00;95707.56;5046848;28;24440;-78
2022/04/13 07:13:23;;;;;;;5.93;3.53;;;;;;;12.28;100.00;95707.53;5044126;28;24459;-78
2022/04/13 07:15:52;;;;;;;4.35;3.17;;;;;;;12.47;100.00;95701.84;5053169;28;24494;-79
2022/04/13 07:18:19;;;;;;;5.90;3.35;;;;;;;12.40;100.00;95700.63;5055741;28;24859;-81
2022/04/13 07:20:45;;;;;;;7.70;3.00;;;;;;;12.29;99.39;95714.38;5054942;28;24819;-78
2022/04/13 07:23:13;;;;;;;6.07;3.07;;;;;;;12.37;99.17;95713.81;5054369;28;24979;-78
2022/04/13 07:25:40;;;;;;;5.40;3.33;;;;;;;12.44;100.00;95702.06;5054395;28;24835;-78
2022/04/13 07:28:06;;;;;;;6.93;3.25;;;;;;;12.74;100.00;95709.44;5054760;28;24435;-78
2022/04/13 07:30:33;;;;;;;3.63;2.65;;;;;;;12.87;97.96;95707.59;5051944;28;24454;-78
2022/04/13 07:33:01;;;;;;;5.68;2.58;;;;;;;12.94;97.16;95710.56;5044706;28;24454;-79
2022/04/13 07:35:28;;;;;;;4.75;2.70;;;;;;;12.84;97.14;95710.44;5049406;28;24475;-79
2022/04/13 07:37:55;;;;;;;5.43;2.75;;;;;;;12.88;96.99;95716.22;5048728;28;24478;-78
2022/04/13 07:40:23;;;;;;;15.77;2.92;;;;;;;12.99;96.14;95713.69;5046758;28;24450;-78
2022/04/13 07:42:50;;;;;;;10.95;2.85;;;;;;;13.17;97.55;95712.31;5048189;28;24435;-78
2022/04/13 07:45:16;;;;;;;7.20;3.30;;;;;;;13.58;100.00;95716.25;5046011;28;24450;-78
2022/04/13 07:47:43;;;;;;;5.70;3.10;;;;;;;13.92;100.00;95716.25;5047323;28;24441;-79
2022/04/13 07:50:12;;;;;;;5.05;3.13;;;;;;;14.17;94.79;95713.41;5045453;28;24450;-79
2022/04/13 07:52:39;;;;;;;6.10;3.03;;;;;;;14.38;93.06;95705.69;5045401;28;24458;-79
2022/04/13 07:55:07;;;;;;;7.65;3.15;;;;;;;14.67;93.75;95708.63;5045531;28;24510;-79
2022/04/13 07:57:35;;;;;;;8.10;2.90;;;;;;;15.16;94.73;95719.47;5047934;28;24520;-78
2022/04/13 08:00:02;;;;;;;4.50;2.80;;;;;;;15.25;88.85;95716.94;5049311;28;24726;-80
2022/04/13 08:02:28;;;;;;;6.15;3.25;;;;;;;15.37;84.63;95717.69;5051435;28;24443;-78
2022/04/13 08:04:55;;;;;;;6.30;3.15;;;;;;;15.48;88.41;95722.03;5043868;28;24642;-79
2022/04/13 08:07:22;;;;;;;8.45;3.15;;;;;;;15.63;81.83;95720.75;5049243;28;25353;-80
2022/04/13 08:09:49;;;;;;;4.03;2.50;;;;;;;15.92;86.20;95726.16;5049765;28;24447;-79
2022/04/13 08:12:17;;;;;;;9.68;2.95;;;;;;;16.21;90.30;95731.53;5046953;28;24459;-78
2022/04/13 08:14:46;;;;;;;4.50;3.00;;;;;;;16.36;84.45;95742.44;5047150;28;24530;-78
2022/04/13 08:17:12;;;;;;;6.15;2.70;;;;;;;16.50;79.50;95735.19;5042355;28;24516;-78
2022/04/13 08:19:39;;;;;;;7.18;2.95;;;;;;;16.68;83.81;95734.41;5043355;28;24448;-78
2022/04/13 08:22:05;;;;;;;5.18;2.78;;;;;;;16.78;72.85;95733.63;5048802;28;24446;-78
2022/04/13 08:24:32;;;;;;;6.30;2.97;;;;;;;17.09;74.68;95736.97;5050753;28;24454;-78
2022/04/13 08:26:59;;;;;;;5.10;2.40;;;;;;;17.29;68.99;95732.59;5057628;28;24418;-78
2022/04/13 08:29:26;;;;;;;3.90;2.47;;;;;;;17.40;68.14;95737.66;5055649;28;25069;-79
2022/04/13 08:31:54;;;;;;;8.25;2.42;;;;;;;17.50;67.75;95735.88;5054212;28;24543;-77
2022/04/13 08:34:21;;;;;;;3.40;2.20;;;;;;;17.76;69.50;95745.78;5052197;28;24933;-78
2022/04/13 08:36:47;;;;;;;5.05;2.70;;;;;;;17.54;72.57;95739.88;5053309;28;24442;-78
2022/04/13 08:39:14;;;;;;;8.40;3.15;;;;;;;17.00;72.79;95741.25;5053562;28;24511;-78
2022/04/13 08:41:48;;;;;;;11.32;3.10;;;;;;;16.81;71.96;95743.84;5058044;28;24419;-78
2022/04/13 08:44:17;;;;;;;6.43;3.08;;;;;;;16.82;74.82;95745.47;5057761;28;24987;-78
2022/04/13 08:46:47;;;;;;;9.45;2.95;;;;;;;16.82;75.06;95745.47;5056825;28;24510;-78
2022/04/13 08:49:15;;;;;;;9.27;3.00;;;;;;;16.86;76.32;95736.41;5097772;22;24922;-71
2022/04/13 08:51:42;;;;;;;5.95;2.53;;;;;;;17.11;73.69;95745.53;5067095;28;24431;-71
2022/04/13 08:54:14;;;;;;;4.93;2.78;;;;;;;17.37;73.94;95738.75;5056016;28;24451;-71
2022/04/13 08:56:44;;;;;;;6.00;2.63;;;;;;;17.90;74.83;95740.09;5053725;28;24522;-73
2022/04/13 08:59:20;;;;;;;6.43;2.42;;;;;;;17.95;69.14;95744.91;5063823;28;24489;-72
2022/04/13 09:01:56;;;;;;;3.92;2.30;;;;;;;18.35;72.69;95737.59;5034769;28;24446;-73
2022/04/13 09:04:27;;;;;;;3.35;2.38;;;;;;;18.28;66.39;95741.78;5050370;28;24793;-73
2022/04/13 09:06:56;;;;;;;8.13;2.97;;;;;;;18.22;66.10;95738.91;5041974;28;24971;-73
2022/04/13 09:09:31;;;;;;;3.70;2.53;;;;;;;18.63;68.50;95729.72;5043332;28;24444;-74
2022/04/13 09:11:58;;;;;;;3.55;2.40;;;;;;;18.97;65.27;95743.06;5038194;28;24455;-73
2022/04/13 09:14:28;;;;;;;3.95;2.20;;;;;;;19.34;65.48;95737.69;5038343;28;24447;-72
2022/04/13 09:16:56;;;;;;;4.03;2.15;;;;;;;19.57;67.10;95738.03;5047303;28;24446;-72
2022/04/13 09:19:25;;;;;;;6.13;2.17;;;;;;;19.70;60.09;95737.69;5047551;28;24439;-72
2022/04/13 09:21:52;;;;;;;4.07;2.00;;;;;;;19.79;62.82;95741.19;5050187;28;24434;-72
2022/04/13 09:24:20;;;;;;;7.80;2.03;;;;;;;20.30;60.18;95745.59;5046893;28;24436;-72
2022/04/13 09:26:46;;;;;;;9.80;1.90;;;;;;;20.56;55.11;95751.81;5050187;28;24431;-74
2022/04/13 09:29:13;;;;;;;3.92;1.83;;;;;;;20.43;51.45;95746.97;5050048;28;24451;-73
2022/04/13 09:31:40;;;;;;;4.30;1.80;;;;;;;20.89;55.63;95750.13;5050342;28;25051;-74
2022/04/13 09:34:07;;;;;;;18.05;2.13;;;;;;;20.59;49.85;95749.72;5050606;28;25057;-73
2022/04/13 09:36:36;;;;;;;5.13;1.60;;;;;;;20.52;53.32;95757.41;5049689;28;25020;-73
2022/04/13 09:39:02;;;;;;;3.78;1.50;;;;;;;19.96;47.44;95750.81;5041241;28;25004;-74
2022/04/13 09:41:37;;;;;;;5.30;1.80;;;;;;;20.58;56.11;95755.09;5041750;28;24439;-72
2022/04/13 09:44:13;;;;;;;5.25;1.50;;;;;;;20.69;56.50;95745.16;5039477;28;24435;-73
2022/04/13 09:46:40;;;;;;;6.60;1.80;;;;;;;20.75;51.45;95744.50;5050807;28;24435;-71
2022/04/13 09:49:11;;;;;;;12.80;1.95;;;;;;;20.42;47.31;95745.31;5050509;28;24443;-73
2022/04/13 09:51:40;;;;;;;7.60;1.80;;;;;;;20.00;44.39;95741.66;5050156;28;24513;-71
2022/04/13 09:54:11;;;;;;;5.32;1.80;;;;;;;20.34;53.18;95737.41;5050506;28;25019;-72
2022/04/13 09:56:39;;;;;;;7.40;1.80;;;;;;;20.44;52.17;95736.28;5050731;28;24905;-71
2022/04/13 09:59:06;;;;;;;5.57;1.40;;;;;;;20.33;46.21;95736.56;5049888;28;24436;-71
2022/04/13 10:01:34;;;;;;;4.55;1.60;;;;;;;19.81;43.89;95741.84;5050259;28;24471;-71
2022/04/13 10:04:03;;;;;;;5.63;1.70;;;;;;;19.67;43.84;95739.78;5050003;28;25108;-72
2022/04/13 10:06:30;;;;;;;6.35;2.03;;;;;;;19.52;45.62;95737.66;5049684;28;24455;-71
2022/04/13 10:09:06;;;;;;;4.70;1.77;;;;;;;20.09;46.09;95752.22;5050012;28;25004;-71
2022/04/13 10:11:33;;;;;;;8.35;1.75;;;;;;;20.49;50.03;95746.34;5047662;28;24438;-71
2022/04/13 10:14:02;;;;;;;5.90;1.73;;;;;;;20.67;46.09;95741.03;5050263;28;24454;-72
2022/04/13 10:16:32;;;;;;;5.22;1.95;;;;;;;20.44;45.51;95738.94;5038535;28;24530;-75
2022/04/13 10:19:00;;;;;;;4.22;1.75;;;;;;;20.67;50.35;95735.75;5044211;28;24996;-75
2022/04/13 10:21:34;;;;;;;9.38;2.20;;;;;;;20.37;44.40;95735.28;5044155;28;24432;-75
2022/04/13 10:24:03;;;;;;;7.32;1.77;;;;;;;20.05;46.21;95738.53;5040866;28;24431;-75
2022/04/13 10:26:30;;;;;;;4.35;1.63;;;;;;;19.92;45.13;95732.91;5040255;28;24979;-75
2022/04/13 10:28:57;;;;;;;5.30;1.70;;;;;;;20.30;50.78;95731.63;5039871;28;24451;-75
2022/04/13 10:31:23;;;;;;;4.45;1.65;;;;;;;20.97;48.30;95726.47;5039796;28;24452;-75
2022/04/13 10:33:52;;;;;;;4.75;2.00;;;;;;;21.08;48.05;95723.50;5037769;28;24451;-75
2022/04/13 10:36:19;;;;;;;5.53;1.92;;;;;;;21.06;46.43;95724.66;5038274;28;24508;-76
2022/04/13 10:38:46;;;;;;;7.22;1.75;;;;;;;21.24;45.72;95726.16;5034389;28;24438;-76
2022/04/13 10:41:17;;;;;;;8.60;1.95;;;;;;;21.48;50.22;95732.47;5047303;28;24971;-76
2022/04/13 10:43:48;;;;;;;6.60;1.87;;;;;;;21.57;51.66;95725.38;5039625;28;24535;-76
2022/04/13 10:46:18;;;;;;;4.25;1.70;;;;;;;21.26;47.70;95726.00;5038138;28;24436;-76
2022/04/13 10:48:47;;;;;;;13.02;1.98;;;;;;;21.45;48.27;95727.53;5042312;28;24451;-76
2022/04/13 10:51:17;;;;;;;4.75;1.90;;;;;;;21.32;44.76;95727.16;5037444;28;24431;-76
2022/04/13 10:53:50;;;;;;;5.63;1.73;;;;;;;21.39;49.21;95726.38;5039487;28;24992;-76
2022/04/13 10:56:22;;;;;;;5.45;1.95;;;;;;;21.19;49.55;95727.66;5039740;28;24427;-75
2022/04/13 10:58:56;;;;;;;5.13;1.73;;;;;;;21.46;48.53;95727.34;5040921;28;25003;-77
2022/04/13 11:01:28;;;;;;;5.85;1.80;;;;;;;21.71;48.54;95732.63;5040370;28;24979;-75
2022/04/13 11:03:56;;;;;;;4.43;1.75;;;;;;;21.75;43.52;95731.31;5039755;28;24505;-76
2022/04/13 11:06:23;;;;;;;8.10;1.75;;;;;;;21.55;45.75;95728.19;5038662;28;24435;-76
2022/04/13 11:08:56;;;;;;;3.78;1.73;;;;;;;21.94;48.78;95722.22;5037864;28;24478;-76
2022/04/13 11:11:27;;;;;;;8.50;2.00;;;;;;;21.81;45.19;95724.56;5037391;28;24443;-72
2022/04/13 11:13:53;;;;;;;3.37;1.90;;;;;;;21.94;44.54;95724.84;5046074;28;24459;-75
2022/04/13 11:16:22;;;;;;;6.50;1.88;;;;;;;21.48;41.31;95728.03;5048263;28;24430;-73
2022/04/13 11:19:20;;;;;;;4.47;1.98;;;;;;;21.07;44.50;95728.97;5037923;28;24509;-73
2022/04/13 11:22:11;;;;;;;6.70;1.70;;;;;;;21.02;49.05;95727.63;5039226;28;24435;-74
2022/04/13 11:24:40;;;;;;;5.22;1.83;;;;;;;21.65;47.07;95715.66;5044422;28;24438;-73
2022/04/13 11:27:09;;;;;;;12.48;1.80;;;;;;;22.01;43.90;95719.75;5034446;28;24435;-73
2022/04/13 11:29:36;;;;;;;7.20;1.95;;;;;;;21.93;44.40;95707.41;5040172;28;24988;-74
2022/04/13 11:32:14;;;;;;;4.65;1.70;;;;;;;21.87;44.88;95718.59;5042470;28;25095;-73
2022/04/13 11:34:43;;;;;;;4.32;2.00;;;;;;;21.80;43.66;95717.63;5043479;28;24818;-73
2022/04/13 11:37:12;;;;;;;9.40;1.50;;;;;;;21.86;46.01;95709.06;5041739;28;24434;-73